sensor_id;sensor_type;location;lat;lon;timestamp;temperature;humidity
13898;DHT22;7019;50.766;4.474;2023-02-08T00:00:37;-2.40;99.90
13898;DHT22;7019;50.766;4.474;2023-02-08T00:03:04;-2.50;99.90
13898;DHT22;7019;50.766;4.474;2023-02-08T00:05:32;-2.60;99.90
13898;DHT22;7019;50.766;4.474;2023-02-08T00:07:59;-2.60;99.90
13898;DHT22;7019;50.766;4.474;2023-02-08T00:10:26;-2.60;99.90
13898;DHT22;7019;50.766;4.474;2023-02-08T00:12:53;-2.60;99.90
13898;DHT22;7019;50.766;4.474;2023-02-08T00:15:21;-2.70;99.90
13898;DHT22;7019;50.766;4.474;2023-02-08T00:17:49;-2.70;99.90
13898;DHT22;7019;50.766;4.474;2023-02-08T00:20:16;-2.60;99.90
13898;DHT22;7019;50.766;4.474;2023-02-08T00:22:44;-2.60;99.90
13898;DHT22;7019;50.766;4.474;2023-02-08T00:25:11;-2.60;99.90
13898;DHT22;7019;50.766;4.474;2023-02-08T00:27:38;-2.70;99.90
13898;DHT22;7019;50.766;4.474;2023-02-08T00:30:06;-2.80;99.90
13898;DHT22;7019;50.766;4.474;2023-02-08T00:32:34;-2.70;99.90
13898;DHT22;7019;50.766;4.474;2023-02-08T00:35:02;-2.70;99.90
13898;DHT22;7019;50.766;4.474;2023-02-08T00:37:29;-2.70;99.90
13898;DHT22;7019;50.766;4.474;2023-02-08T00:39:56;-2.70;99.90
13898;DHT22;7019;50.766;4.474;2023-02-08T00:42:27;-2.80;99.90
13898;DHT22;7019;50.766;4.474;2023-02-08T00:44:54;-2.80;99.90
13898;DHT22;7019;50.766;4.474;2023-02-08T00:47:22;-2.70;99.90
13898;DHT22;7019;50.766;4.474;2023-02-08T00:49:49;-2.70;99.90
13898;DHT22;7019;50.766;4.474;2023-02-08T00:52:18;-2.70;99.90
13898;DHT22;7019;50.766;4.474;2023-02-08T00:54:45;-2.70;99.90
13898;DHT22;7019;50.766;4.474;2023-02-08T00:57:12;-2.70;99.90
13898;DHT22;7019;50.766;4.474;2023-02-08T00:59:39;-2.80;99.90
13898;DHT22;7019;50.766;4.474;2023-02-08T01:02:07;-2.80;99.90
13898;DHT22;7019;50.766;4.474;2023-02-08T01:04:34;-2.90;99.90
13898;DHT22;7019;50.766;4.474;2023-02-08T01:07:01;-2.80;99.90
13898;DHT22;7019;50.766;4.474;2023-02-08T01:09:30;-2.70;99.90
13898;DHT22;7019;50.766;4.474;2023-02-08T01:11:57;-2.80;99.90
13898;DHT22;7019;50.766;4.474;2023-02-08T01:14:24;-2.80;99.90
13898;DHT22;7019;50.766;4.474;2023-02-08T01:16:51;-2.80;99.90
13898;DHT22;7019;50.766;4.474;2023-02-08T01:19:18;-2.80;99.90
13898;DHT22;7019;50.766;4.474;2023-02-08T01:21:45;-2.90;99.90
13898;DHT22;7019;50.766;4.474;2023-02-08T01:24:14;-3.00;99.90
13898;DHT22;7019;50.766;4.474;2023-02-08T01:26:42;-3.20;99.90
13898;DHT22;7019;50.766;4.474;2023-02-08T01:29:10;-3.40;99.90
13898;DHT22;7019;50.766;4.474;2023-02-08T01:31:40;-3.30;99.90
13898;DHT22;7019;50.766;4.474;2023-02-08T01:34:08;-3.20;99.90
13898;DHT22;7019;50.766;4.474;2023-02-08T01:36:36;-3.10;99.90
13898;DHT22;7019;50.766;4.474;2023-02-08T01:39:05;-3.10;99.90
13898;DHT22;7019;50.766;4.474;2023-02-08T01:41:34;-3.10;99.90
13898;DHT22;7019;50.766;4.474;2023-02-08T01:44:08;-3.00;99.90
13898;DHT22;7019;50.766;4.474;2023-02-08T01:46:55;-3.00;99.90
13898;DHT22;7019;50.766;4.474;2023-02-08T01:49:26;-3.10;99.90
13898;DHT22;7019;50.766;4.474;2023-02-08T01:51:57;-3.00;99.90
13898;DHT22;7019;50.766;4.474;2023-02-08T01:54:27;-3.10;99.90
13898;DHT22;7019;50.766;4.474;2023-02-08T01:56:56;-3.10;99.90
13898;DHT22;7019;50.766;4.474;2023-02-08T01:59:27;-3.10;99.90
13898;DHT22;7019;50.766;4.474;2023-02-08T02:01:56;-3.30;99.90
13898;DHT22;7019;50.766;4.474;2023-02-08T02:04:24;-3.20;99.90
13898;DHT22;7019;50.766;4.474;2023-02-08T02:06:56;-3.20;99.90
13898;DHT22;7019;50.766;4.474;2023-02-08T02:09:27;-3.10;99.90
13898;DHT22;7019;50.766;4.474;2023-02-08T02:11:57;-3.10;99.90
13898;DHT22;7019;50.766;4.474;2023-02-08T02:14:26;-3.10;99.90
13898;DHT22;7019;50.766;4.474;2023-02-08T02:16:53;-3.00;99.90
13898;DHT22;7019;50.766;4.474;2023-02-08T02:19:28;-3.10;99.90
13898;DHT22;7019;50.766;4.474;2023-02-08T02:22:06;-3.10;99.90
13898;DHT22;7019;50.766;4.474;2023-02-08T02:25:16;-3.00;99.90
13898;DHT22;7019;50.766;4.474;2023-02-08T02:28:04;-3.20;99.90
13898;DHT22;7019;50.766;4.474;2023-02-08T02:33:51;-3.10;99.90
13898;DHT22;7019;50.766;4.474;2023-02-08T02:36:25;-3.20;99.90
13898;DHT22;7019;50.766;4.474;2023-02-08T02:39:04;-3.20;99.90
13898;DHT22;7019;50.766;4.474;2023-02-08T02:41:39;-3.20;99.90
13898;DHT22;7019;50.766;4.474;2023-02-08T02:44:35;-3.20;99.90
13898;DHT22;7019;50.766;4.474;2023-02-08T02:47:09;-3.20;99.90
13898;DHT22;7019;50.766;4.474;2023-02-08T02:49:47;-3.30;99.90
13898;DHT22;7019;50.766;4.474;2023-02-08T02:52:18;-3.20;99.90
13898;DHT22;7019;50.766;4.474;2023-02-08T02:54:49;-3.30;99.90
13898;DHT22;7019;50.766;4.474;2023-02-08T02:57:21;-3.20;99.90
13898;DHT22;7019;50.766;4.474;2023-02-08T02:59:50;-3.20;99.90
13898;DHT22;7019;50.766;4.474;2023-02-08T03:02:17;-3.30;99.90
13898;DHT22;7019;50.766;4.474;2023-02-08T03:04:52;-3.30;99.90
13898;DHT22;7019;50.766;4.474;2023-02-08T03:07:37;-3.30;99.90
13898;DHT22;7019;50.766;4.474;2023-02-08T03:10:23;-3.30;99.90
13898;DHT22;7019;50.766;4.474;2023-02-08T03:13:00;-3.30;99.90
13898;DHT22;7019;50.766;4.474;2023-02-08T03:15:37;-3.30;99.90
13898;DHT22;7019;50.766;4.474;2023-02-08T03:18:18;-3.30;99.90
13898;DHT22;7019;50.766;4.474;2023-02-08T03:20:53;-3.30;99.90
13898;DHT22;7019;50.766;4.474;2023-02-08T03:23:27;-3.30;99.90
13898;DHT22;7019;50.766;4.474;2023-02-08T03:26:03;-3.50;99.90
13898;DHT22;7019;50.766;4.474;2023-02-08T03:28:37;-3.70;99.90
13898;DHT22;7019;50.766;4.474;2023-02-08T03:31:14;-3.70;99.90
13898;DHT22;7019;50.766;4.474;2023-02-08T03:33:49;-3.80;99.90
13898;DHT22;7019;50.766;4.474;2023-02-08T03:36:22;-3.90;99.90
13898;DHT22;7019;50.766;4.474;2023-02-08T03:38:52;-3.60;99.90
13898;DHT22;7019;50.766;4.474;2023-02-08T03:41:23;-3.50;99.90
13898;DHT22;7019;50.766;4.474;2023-02-08T03:43:56;-3.50;99.90
13898;DHT22;7019;50.766;4.474;2023-02-08T03:46:27;-3.30;99.90
13898;DHT22;7019;50.766;4.474;2023-02-08T03:48:59;-3.20;99.90
13898;DHT22;7019;50.766;4.474;2023-02-08T03:51:30;-3.30;99.90
13898;DHT22;7019;50.766;4.474;2023-02-08T03:54:00;-3.30;99.90
13898;DHT22;7019;50.766;4.474;2023-02-08T03:56:34;-3.30;99.90
13898;DHT22;7019;50.766;4.474;2023-02-08T03:59:07;-3.60;99.90
13898;DHT22;7019;50.766;4.474;2023-02-08T04:01:39;-3.90;99.90
13898;DHT22;7019;50.766;4.474;2023-02-08T04:04:08;-4.10;99.90
13898;DHT22;7019;50.766;4.474;2023-02-08T04:06:37;-4.20;99.90
13898;DHT22;7019;50.766;4.474;2023-02-08T04:09:04;-4.10;99.90
13898;DHT22;7019;50.766;4.474;2023-02-08T04:11:31;-3.90;99.90
13898;DHT22;7019;50.766;4.474;2023-02-08T04:13:58;-3.70;99.90
13898;DHT22;7019;50.766;4.474;2023-02-08T04:16:25;-3.70;99.90
13898;DHT22;7019;50.766;4.474;2023-02-08T04:18:52;-3.70;99.90
13898;DHT22;7019;50.766;4.474;2023-02-08T04:21:19;-3.60;99.90
13898;DHT22;7019;50.766;4.474;2023-02-08T04:23:48;-3.60;99.90
13898;DHT22;7019;50.766;4.474;2023-02-08T04:26:16;-3.60;99.90
13898;DHT22;7019;50.766;4.474;2023-02-08T04:28:43;-3.80;99.90
13898;DHT22;7019;50.766;4.474;2023-02-08T04:31:11;-3.70;99.90
13898;DHT22;7019;50.766;4.474;2023-02-08T04:33:38;-3.70;99.90
13898;DHT22;7019;50.766;4.474;2023-02-08T04:36:05;-3.60;99.90
13898;DHT22;7019;50.766;4.474;2023-02-08T04:38:32;-3.60;99.90
13898;DHT22;7019;50.766;4.474;2023-02-08T04:41:01;-3.60;99.90
13898;DHT22;7019;50.766;4.474;2023-02-08T04:43:28;-3.60;99.90
13898;DHT22;7019;50.766;4.474;2023-02-08T04:45:55;-3.70;99.90
13898;DHT22;7019;50.766;4.474;2023-02-08T04:48:23;-3.80;99.90
13898;DHT22;7019;50.766;4.474;2023-02-08T04:50:50;-3.80;99.90
13898;DHT22;7019;50.766;4.474;2023-02-08T04:53:17;-3.80;99.90
13898;DHT22;7019;50.766;4.474;2023-02-08T04:55:44;-3.80;99.90
13898;DHT22;7019;50.766;4.474;2023-02-08T04:58:12;-3.80;99.90
13898;DHT22;7019;50.766;4.474;2023-02-08T05:00:39;-3.70;99.90
13898;DHT22;7019;50.766;4.474;2023-02-08T05:03:07;-3.70;99.90
13898;DHT22;7019;50.766;4.474;2023-02-08T05:05:34;-3.70;99.90
13898;DHT22;7019;50.766;4.474;2023-02-08T05:08:01;-3.70;99.90
13898;DHT22;7019;50.766;4.474;2023-02-08T05:10:29;-3.70;99.90
13898;DHT22;7019;50.766;4.474;2023-02-08T05:12:56;-3.80;99.90
13898;DHT22;7019;50.766;4.474;2023-02-08T05:15:24;-4.00;99.90
13898;DHT22;7019;50.766;4.474;2023-02-08T05:17:52;-4.20;99.90
13898;DHT22;7019;50.766;4.474;2023-02-08T05:20:19;-4.10;99.90
13898;DHT22;7019;50.766;4.474;2023-02-08T05:22:46;-4.00;99.90
13898;DHT22;7019;50.766;4.474;2023-02-08T05:25:13;-3.90;99.90
13898;DHT22;7019;50.766;4.474;2023-02-08T05:27:40;-3.80;99.90
13898;DHT22;7019;50.766;4.474;2023-02-08T05:30:08;-3.80;99.90
13898;DHT22;7019;50.766;4.474;2023-02-08T05:32:37;-3.80;99.90
13898;DHT22;7019;50.766;4.474;2023-02-08T05:35:04;-3.80;99.90
13898;DHT22;7019;50.766;4.474;2023-02-08T05:37:32;-3.80;99.90
13898;DHT22;7019;50.766;4.474;2023-02-08T05:39:59;-3.80;99.90
13898;DHT22;7019;50.766;4.474;2023-02-08T05:42:26;-3.90;99.90
13898;DHT22;7019;50.766;4.474;2023-02-08T05:44:53;-3.90;99.90
13898;DHT22;7019;50.766;4.474;2023-02-08T05:47:20;-3.80;99.90
13898;DHT22;7019;50.766;4.474;2023-02-08T05:49:49;-3.80;99.90
13898;DHT22;7019;50.766;4.474;2023-02-08T05:52:16;-3.80;99.90
13898;DHT22;7019;50.766;4.474;2023-02-08T05:54:43;-3.80;99.90
13898;DHT22;7019;50.766;4.474;2023-02-08T05:57:10;-3.80;99.90
13898;DHT22;7019;50.766;4.474;2023-02-08T05:59:37;-3.80;99.90
13898;DHT22;7019;50.766;4.474;2023-02-08T06:02:04;-3.80;99.90
13898;DHT22;7019;50.766;4.474;2023-02-08T06:04:32;-3.80;99.90
13898;DHT22;7019;50.766;4.474;2023-02-08T06:07:00;-3.80;99.90
13898;DHT22;7019;50.766;4.474;2023-02-08T06:09:27;-3.80;99.90
13898;DHT22;7019;50.766;4.474;2023-02-08T06:11:54;-3.90;99.90
13898;DHT22;7019;50.766;4.474;2023-02-08T06:14:22;-3.90;99.90
13898;DHT22;7019;50.766;4.474;2023-02-08T06:16:49;-3.90;99.90
13898;DHT22;7019;50.766;4.474;2023-02-08T06:19:16;-3.90;99.90
13898;DHT22;7019;50.766;4.474;2023-02-08T06:21:43;-3.90;99.90
13898;DHT22;7019;50.766;4.474;2023-02-08T06:24:12;-3.90;99.90
13898;DHT22;7019;50.766;4.474;2023-02-08T06:26:41;-3.90;99.90
13898;DHT22;7019;50.766;4.474;2023-02-08T06:29:09;-3.90;99.90
13898;DHT22;7019;50.766;4.474;2023-02-08T06:31:36;-4.10;99.90
13898;DHT22;7019;50.766;4.474;2023-02-08T06:34:03;-4.30;99.90
13898;DHT22;7019;50.766;4.474;2023-02-08T06:36:30;-4.40;99.90
13898;DHT22;7019;50.766;4.474;2023-02-08T06:38:57;-4.50;99.90
13898;DHT22;7019;50.766;4.474;2023-02-08T06:41:25;-4.40;99.90
13898;DHT22;7019;50.766;4.474;2023-02-08T06:43:53;-4.50;99.90
13898;DHT22;7019;50.766;4.474;2023-02-08T06:46:20;-4.60;99.90
13898;DHT22;7019;50.766;4.474;2023-02-08T06:48:47;-4.70;99.90
13898;DHT22;7019;50.766;4.474;2023-02-08T06:51:14;-4.70;99.90
13898;DHT22;7019;50.766;4.474;2023-02-08T06:53:41;-4.80;99.90
13898;DHT22;7019;50.766;4.474;2023-02-08T06:56:08;-4.60;99.90
13898;DHT22;7019;50.766;4.474;2023-02-08T06:58:37;-4.50;99.90
13898;DHT22;7019;50.766;4.474;2023-02-08T07:01:04;-4.40;99.90
13898;DHT22;7019;50.766;4.474;2023-02-08T07:03:31;-4.30;99.90
13898;DHT22;7019;50.766;4.474;2023-02-08T07:05:59;-4.20;99.90
13898;DHT22;7019;50.766;4.474;2023-02-08T07:08:26;-4.20;99.90
13898;DHT22;7019;50.766;4.474;2023-02-08T07:10:53;-4.10;99.90
13898;DHT22;7019;50.766;4.474;2023-02-08T07:13:20;-4.20;99.90
13898;DHT22;7019;50.766;4.474;2023-02-08T07:15:49;-4.10;99.90
13898;DHT22;7019;50.766;4.474;2023-02-08T07:18:16;-4.10;99.90
13898;DHT22;7019;50.766;4.474;2023-02-08T07:20:43;-4.10;99.90
13898;DHT22;7019;50.766;4.474;2023-02-08T07:23:10;-4.00;99.90
13898;DHT22;7019;50.766;4.474;2023-02-08T07:25:37;-4.10;99.90
13898;DHT22;7019;50.766;4.474;2023-02-08T07:28:04;-4.20;99.90
13898;DHT22;7019;50.766;4.474;2023-02-08T07:30:31;-4.10;99.90
13898;DHT22;7019;50.766;4.474;2023-02-08T07:33:00;-4.00;99.90
13898;DHT22;7019;50.766;4.474;2023-02-08T07:35:27;-4.00;99.90
13898;DHT22;7019;50.766;4.474;2023-02-08T07:37:54;-3.90;99.90
13898;DHT22;7019;50.766;4.474;2023-02-08T07:40:21;-3.90;99.90
13898;DHT22;7019;50.766;4.474;2023-02-08T07:42:48;-3.80;99.90
13898;DHT22;7019;50.766;4.474;2023-02-08T07:45:16;-3.80;99.90
13898;DHT22;7019;50.766;4.474;2023-02-08T07:47:45;-3.80;99.90
13898;DHT22;7019;50.766;4.474;2023-02-08T07:50:14;-3.70;99.90
13898;DHT22;7019;50.766;4.474;2023-02-08T07:52:41;-3.50;99.90
13898;DHT22;7019;50.766;4.474;2023-02-08T07:55:11;-3.20;99.90
13898;DHT22;7019;50.766;4.474;2023-02-08T07:57:41;-2.90;99.90
13898;DHT22;7019;50.766;4.474;2023-02-08T08:00:10;-2.60;99.90
13898;DHT22;7019;50.766;4.474;2023-02-08T08:02:37;-2.00;99.90
13898;DHT22;7019;50.766;4.474;2023-02-08T08:05:04;-1.50;99.90
13898;DHT22;7019;50.766;4.474;2023-02-08T08:07:33;-1.10;99.90
13898;DHT22;7019;50.766;4.474;2023-02-08T08:10:00;-0.90;99.90
13898;DHT22;7019;50.766;4.474;2023-02-08T08:12:27;-0.80;99.90
13898;DHT22;7019;50.766;4.474;2023-02-08T08:14:55;-0.90;99.90
13898;DHT22;7019;50.766;4.474;2023-02-08T08:17:22;-1.00;99.90
13898;DHT22;7019;50.766;4.474;2023-02-08T08:19:49;-1.20;99.90
13898;DHT22;7019;50.766;4.474;2023-02-08T08:22:16;-1.40;99.90
13898;DHT22;7019;50.766;4.474;2023-02-08T08:24:44;-1.60;99.90
13898;DHT22;7019;50.766;4.474;2023-02-08T08:27:11;-1.70;99.90
13898;DHT22;7019;50.766;4.474;2023-02-08T08:29:38;-1.90;99.90
13898;DHT22;7019;50.766;4.474;2023-02-08T08:32:07;-2.00;99.90
13898;DHT22;7019;50.766;4.474;2023-02-08T08:34:34;-2.10;99.90
13898;DHT22;7019;50.766;4.474;2023-02-08T08:37:01;-2.10;99.90
13898;DHT22;7019;50.766;4.474;2023-02-08T08:39:28;-2.10;99.90
13898;DHT22;7019;50.766;4.474;2023-02-08T08:41:59;-2.00;99.90
13898;DHT22;7019;50.766;4.474;2023-02-08T08:44:28;-2.00;99.90
13898;DHT22;7019;50.766;4.474;2023-02-08T08:46:56;-2.00;99.90
13898;DHT22;7019;50.766;4.474;2023-02-08T08:49:24;-1.90;99.90
13898;DHT22;7019;50.766;4.474;2023-02-08T08:51:51;-1.90;99.90
13898;DHT22;7019;50.766;4.474;2023-02-08T08:54:19;-2.00;99.90
13898;DHT22;7019;50.766;4.474;2023-02-08T08:56:47;-2.00;99.90
13898;DHT22;7019;50.766;4.474;2023-02-08T08:59:15;-2.00;99.90
13898;DHT22;7019;50.766;4.474;2023-02-08T09:01:42;-2.10;99.90
13898;DHT22;7019;50.766;4.474;2023-02-08T09:04:10;-2.00;99.90
13898;DHT22;7019;50.766;4.474;2023-02-08T09:06:37;-2.00;99.90
13898;DHT22;7019;50.766;4.474;2023-02-08T09:09:05;-2.00;99.90
13898;DHT22;7019;50.766;4.474;2023-02-08T09:11:33;-2.00;99.90
13898;DHT22;7019;50.766;4.474;2023-02-08T09:14:01;-2.00;99.90
13898;DHT22;7019;50.766;4.474;2023-02-08T09:16:31;-1.90;99.90
13898;DHT22;7019;50.766;4.474;2023-02-08T09:19:00;-1.90;99.90
13898;DHT22;7019;50.766;4.474;2023-02-08T09:21:27;-1.90;99.90
13898;DHT22;7019;50.766;4.474;2023-02-08T09:23:54;-1.90;99.90
13898;DHT22;7019;50.766;4.474;2023-02-08T09:26:22;-1.90;99.90
13898;DHT22;7019;50.766;4.474;2023-02-08T09:28:49;-1.90;99.90
13898;DHT22;7019;50.766;4.474;2023-02-08T09:31:20;-1.90;99.90
13898;DHT22;7019;50.766;4.474;2023-02-08T09:33:50;-1.80;99.90
13898;DHT22;7019;50.766;4.474;2023-02-08T09:36:18;-1.80;99.90
13898;DHT22;7019;50.766;4.474;2023-02-08T09:38:46;-1.70;99.90
13898;DHT22;7019;50.766;4.474;2023-02-08T09:41:25;-1.60;99.90
13898;DHT22;7019;50.766;4.474;2023-02-08T09:44:01;-1.50;99.90
13898;DHT22;7019;50.766;4.474;2023-02-08T09:46:37;-1.40;99.90
13898;DHT22;7019;50.766;4.474;2023-02-08T09:49:10;-1.30;99.90
13898;DHT22;7019;50.766;4.474;2023-02-08T09:51:43;-1.30;99.90
13898;DHT22;7019;50.766;4.474;2023-02-08T09:54:17;-1.20;99.90
13898;DHT22;7019;50.766;4.474;2023-02-08T09:56:47;-1.10;99.90
13898;DHT22;7019;50.766;4.474;2023-02-08T09:59:21;-1.10;99.90
13898;DHT22;7019;50.766;4.474;2023-02-08T10:01:55;-1.00;99.90
13898;DHT22;7019;50.766;4.474;2023-02-08T10:04:32;-0.90;99.90
13898;DHT22;7019;50.766;4.474;2023-02-08T10:07:02;-0.80;99.90
13898;DHT22;7019;50.766;4.474;2023-02-08T10:09:29;-0.60;99.90
13898;DHT22;7019;50.766;4.474;2023-02-08T10:12:06;-0.40;99.90
13898;DHT22;7019;50.766;4.474;2023-02-08T10:14:45;-0.20;99.90
13898;DHT22;7019;50.766;4.474;2023-02-08T10:17:35;0.10;99.90
13898;DHT22;7019;50.766;4.474;2023-02-08T10:20:18;0.30;99.90
13898;DHT22;7019;50.766;4.474;2023-02-08T10:22:56;0.60;99.90
13898;DHT22;7019;50.766;4.474;2023-02-08T10:25:45;0.90;99.90
13898;DHT22;7019;50.766;4.474;2023-02-08T10:28:27;1.10;99.90
13898;DHT22;7019;50.766;4.474;2023-02-08T10:31:01;1.10;99.90
13898;DHT22;7019;50.766;4.474;2023-02-08T10:33:34;1.40;99.90
13898;DHT22;7019;50.766;4.474;2023-02-08T10:36:12;1.70;99.90
13898;DHT22;7019;50.766;4.474;2023-02-08T10:38:40;1.70;99.90
13898;DHT22;7019;50.766;4.474;2023-02-08T10:41:09;1.70;99.90
13898;DHT22;7019;50.766;4.474;2023-02-08T10:43:41;2.00;99.90
13898;DHT22;7019;50.766;4.474;2023-02-08T10:46:15;2.20;99.90
13898;DHT22;7019;50.766;4.474;2023-02-08T10:48:55;2.20;99.90
13898;DHT22;7019;50.766;4.474;2023-02-08T10:51:27;2.30;99.90
13898;DHT22;7019;50.766;4.474;2023-02-08T10:53:56;2.40;99.90
13898;DHT22;7019;50.766;4.474;2023-02-08T10:56:35;2.50;99.90
13898;DHT22;7019;50.766;4.474;2023-02-08T10:59:11;2.70;99.90
13898;DHT22;7019;50.766;4.474;2023-02-08T11:01:40;2.90;99.90
13898;DHT22;7019;50.766;4.474;2023-02-08T11:04:09;2.80;99.90
13898;DHT22;7019;50.766;4.474;2023-02-08T11:06:38;3.00;99.90
13898;DHT22;7019;50.766;4.474;2023-02-08T11:09:06;3.00;99.90
13898;DHT22;7019;50.766;4.474;2023-02-08T11:11:34;3.10;99.90
13898;DHT22;7019;50.766;4.474;2023-02-08T11:14:07;3.20;98.10
13898;DHT22;7019;50.766;4.474;2023-02-08T11:16:35;3.20;99.90
13898;DHT22;7019;50.766;4.474;2023-02-08T11:19:04;3.20;99.90
13898;DHT22;7019;50.766;4.474;2023-02-08T11:21:33;3.30;98.60
13898;DHT22;7019;50.766;4.474;2023-02-08T11:24:22;3.30;97.10
13898;DHT22;7019;50.766;4.474;2023-02-08T11:26:52;3.50;98.20
13898;DHT22;7019;50.766;4.474;2023-02-08T11:29:22;3.50;97.50
13898;DHT22;7019;50.766;4.474;2023-02-08T11:32:01;3.60;98.20
13898;DHT22;7019;50.766;4.474;2023-02-08T11:34:30;3.70;97.80
13898;DHT22;7019;50.766;4.474;2023-02-08T11:37:00;3.90;97.90
13898;DHT22;7019;50.766;4.474;2023-02-08T11:39:35;4.00;98.20
13898;DHT22;7019;50.766;4.474;2023-02-08T11:42:04;3.80;99.90
13898;DHT22;7019;50.766;4.474;2023-02-08T11:44:33;3.70;98.40
13898;DHT22;7019;50.766;4.474;2023-02-08T11:47:04;3.70;96.40
13898;DHT22;7019;50.766;4.474;2023-02-08T11:49:36;3.90;95.60
13898;DHT22;7019;50.766;4.474;2023-02-08T11:52:04;4.00;95.90
13898;DHT22;7019;50.766;4.474;2023-02-08T11:54:37;4.10;95.50
13898;DHT22;7019;50.766;4.474;2023-02-08T11:57:12;4.20;93.70
13898;DHT22;7019;50.766;4.474;2023-02-08T11:59:40;4.40;94.50
13898;DHT22;7019;50.766;4.474;2023-02-08T12:02:30;4.40;95.10
13898;DHT22;7019;50.766;4.474;2023-02-08T12:05:00;4.50;95.00
13898;DHT22;7019;50.766;4.474;2023-02-08T12:13:43;4.90;95.00
13898;DHT22;7019;50.766;4.474;2023-02-08T12:16:26;4.90;94.30
13898;DHT22;7019;50.766;4.474;2023-02-08T12:19:36;5.00;95.30
13898;DHT22;7019;50.766;4.474;2023-02-08T12:22:12;5.00;94.80
13898;DHT22;7019;50.766;4.474;2023-02-08T12:24:48;5.10;95.40
13898;DHT22;7019;50.766;4.474;2023-02-08T12:27:33;5.20;96.40
13898;DHT22;7019;50.766;4.474;2023-02-08T12:30:13;5.20;93.90
13898;DHT22;7019;50.766;4.474;2023-02-08T12:33:00;5.20;96.90
13898;DHT22;7019;50.766;4.474;2023-02-08T12:35:57;5.10;97.50
13898;DHT22;7019;50.766;4.474;2023-02-08T12:41:46;4.90;95.00
13898;DHT22;7019;50.766;4.474;2023-02-08T12:44:31;5.10;95.00
13898;DHT22;7019;50.766;4.474;2023-02-08T12:47:09;5.00;95.50
13898;DHT22;7019;50.766;4.474;2023-02-08T12:49:51;5.10;94.30
13898;DHT22;7019;50.766;4.474;2023-02-08T12:52:32;4.80;96.40
13898;DHT22;7019;50.766;4.474;2023-02-08T12:55:08;5.00;94.90
13898;DHT22;7019;50.766;4.474;2023-02-08T12:57:41;4.80;98.30
13898;DHT22;7019;50.766;4.474;2023-02-08T13:00:18;4.70;96.40
13898;DHT22;7019;50.766;4.474;2023-02-08T13:02:52;4.70;98.10
13898;DHT22;7019;50.766;4.474;2023-02-08T13:05:27;4.70;96.80
13898;DHT22;7019;50.766;4.474;2023-02-08T13:08:00;4.90;94.40
13898;DHT22;7019;50.766;4.474;2023-02-08T13:10:33;5.10;94.60
13898;DHT22;7019;50.766;4.474;2023-02-08T13:13:07;5.30;94.00
13898;DHT22;7019;50.766;4.474;2023-02-08T13:15:43;5.30;94.20
13898;DHT22;7019;50.766;4.474;2023-02-08T13:18:14;5.30;93.70
13898;DHT22;7019;50.766;4.474;2023-02-08T13:20:45;5.30;93.70
13898;DHT22;7019;50.766;4.474;2023-02-08T13:23:21;5.40;93.10
13898;DHT22;7019;50.766;4.474;2023-02-08T13:25:53;5.40;91.50
13898;DHT22;7019;50.766;4.474;2023-02-08T13:28:23;5.40;93.30
13898;DHT22;7019;50.766;4.474;2023-02-08T13:30:58;5.30;96.20
13898;DHT22;7019;50.766;4.474;2023-02-08T13:33:35;5.30;94.10
13898;DHT22;7019;50.766;4.474;2023-02-08T13:36:17;5.30;94.30
13898;DHT22;7019;50.766;4.474;2023-02-08T13:38:46;5.40;93.50
13898;DHT22;7019;50.766;4.474;2023-02-08T13:41:16;5.50;92.00
13898;DHT22;7019;50.766;4.474;2023-02-08T13:43:49;5.40;94.50
13898;DHT22;7019;50.766;4.474;2023-02-08T13:46:20;5.40;92.70
13898;DHT22;7019;50.766;4.474;2023-02-08T13:48:50;5.40;92.80
13898;DHT22;7019;50.766;4.474;2023-02-08T13:54:23;5.70;93.00
13898;DHT22;7019;50.766;4.474;2023-02-08T13:56:51;5.60;92.30
13898;DHT22;7019;50.766;4.474;2023-02-08T13:59:39;5.70;92.30
13898;DHT22;7019;50.766;4.474;2023-02-08T14:02:21;5.70;93.50
13898;DHT22;7019;50.766;4.474;2023-02-08T14:04:51;5.70;92.40
13898;DHT22;7019;50.766;4.474;2023-02-08T14:07:26;5.80;92.80
13898;DHT22;7019;50.766;4.474;2023-02-08T14:10:25;5.80;92.60
13898;DHT22;7019;50.766;4.474;2023-02-08T14:12:59;5.80;92.40
13898;DHT22;7019;50.766;4.474;2023-02-08T14:15:36;5.80;93.10
13898;DHT22;7019;50.766;4.474;2023-02-08T14:18:21;5.80;94.30
13898;DHT22;7019;50.766;4.474;2023-02-08T14:21:02;5.80;92.70
13898;DHT22;7019;50.766;4.474;2023-02-08T14:23:32;5.70;93.70
13898;DHT22;7019;50.766;4.474;2023-02-08T14:26:04;5.60;94.50
13898;DHT22;7019;50.766;4.474;2023-02-08T14:28:36;5.50;93.90
13898;DHT22;7019;50.766;4.474;2023-02-08T14:31:07;5.50;93.70
13898;DHT22;7019;50.766;4.474;2023-02-08T14:33:38;5.50;94.50
13898;DHT22;7019;50.766;4.474;2023-02-08T14:36:19;5.50;94.40
13898;DHT22;7019;50.766;4.474;2023-02-08T14:38:51;5.50;93.90
13898;DHT22;7019;50.766;4.474;2023-02-08T14:41:42;5.60;94.20
13898;DHT22;7019;50.766;4.474;2023-02-08T14:50:26;5.30;94.30
13898;DHT22;7019;50.766;4.474;2023-02-08T14:53:01;5.30;95.10
13898;DHT22;7019;50.766;4.474;2023-02-08T14:55:31;5.40;94.40
13898;DHT22;7019;50.766;4.474;2023-02-08T14:58:04;5.40;94.30
13898;DHT22;7019;50.766;4.474;2023-02-08T15:00:35;5.30;95.10
13898;DHT22;7019;50.766;4.474;2023-02-08T15:03:04;5.30;95.20
13898;DHT22;7019;50.766;4.474;2023-02-08T15:05:39;5.20;95.10
13898;DHT22;7019;50.766;4.474;2023-02-08T15:08:07;5.30;94.50
13898;DHT22;7019;50.766;4.474;2023-02-08T15:10:40;5.30;94.60
13898;DHT22;7019;50.766;4.474;2023-02-08T15:13:16;5.30;95.20
13898;DHT22;7019;50.766;4.474;2023-02-08T15:15:45;5.20;96.50
13898;DHT22;7019;50.766;4.474;2023-02-08T15:18:19;5.30;95.70
13898;DHT22;7019;50.766;4.474;2023-02-08T15:21:01;5.30;95.30
13898;DHT22;7019;50.766;4.474;2023-02-08T15:23:29;5.30;95.40
13898;DHT22;7019;50.766;4.474;2023-02-08T15:25:58;5.20;96.00
13898;DHT22;7019;50.766;4.474;2023-02-08T15:28:27;5.10;96.00
13898;DHT22;7019;50.766;4.474;2023-02-08T15:30:57;5.10;95.80
13898;DHT22;7019;50.766;4.474;2023-02-08T15:33:25;5.10;95.70
13898;DHT22;7019;50.766;4.474;2023-02-08T15:35:59;5.10;95.50
13898;DHT22;7019;50.766;4.474;2023-02-08T15:38:28;5.10;95.40
13898;DHT22;7019;50.766;4.474;2023-02-08T15:41:01;5.20;95.90
13898;DHT22;7019;50.766;4.474;2023-02-08T15:43:29;5.10;97.00
13898;DHT22;7019;50.766;4.474;2023-02-08T15:45:56;4.90;98.50
13898;DHT22;7019;50.766;4.474;2023-02-08T15:48:24;4.80;96.70
13898;DHT22;7019;50.766;4.474;2023-02-08T15:50:52;4.80;96.90
13898;DHT22;7019;50.766;4.474;2023-02-08T15:53:22;4.80;96.80
13898;DHT22;7019;50.766;4.474;2023-02-08T15:55:53;4.70;96.80
13898;DHT22;7019;50.766;4.474;2023-02-08T15:58:27;4.60;97.20
13898;DHT22;7019;50.766;4.474;2023-02-08T16:00:56;4.60;97.30
13898;DHT22;7019;50.766;4.474;2023-02-08T16:03:25;4.50;97.50
13898;DHT22;7019;50.766;4.474;2023-02-08T16:05:55;4.40;97.50
13898;DHT22;7019;50.766;4.474;2023-02-08T16:08:26;4.40;97.20
13898;DHT22;7019;50.766;4.474;2023-02-08T16:10:56;4.30;97.10
13898;DHT22;7019;50.766;4.474;2023-02-08T16:13:27;4.30;97.20
13898;DHT22;7019;50.766;4.474;2023-02-08T16:15:57;4.30;97.10
13898;DHT22;7019;50.766;4.474;2023-02-08T16:18:40;4.30;97.40
13898;DHT22;7019;50.766;4.474;2023-02-08T16:21:26;4.20;97.50
13898;DHT22;7019;50.766;4.474;2023-02-08T16:23:56;4.10;97.30
13898;DHT22;7019;50.766;4.474;2023-02-08T16:26:25;4.10;97.60
13898;DHT22;7019;50.766;4.474;2023-02-08T16:28:56;3.90;98.20
13898;DHT22;7019;50.766;4.474;2023-02-08T16:31:25;3.80;98.30
13898;DHT22;7019;50.766;4.474;2023-02-08T16:33:59;3.70;98.50
13898;DHT22;7019;50.766;4.474;2023-02-08T16:36:33;3.60;98.20
13898;DHT22;7019;50.766;4.474;2023-02-08T16:42:27;3.30;99.30